sensor_id;sensor_type;location;lat;lon;timestamp;P1;durP1;ratioP1;P2;durP2;ratioP2
11893;SDS011;6006;49.696;8.662;2022-08-05T00:02:18;8.60;;;2.40;;
11893;SDS011;6006;49.696;8.662;2022-08-05T00:04:45;5.75;;;2.25;;
11893;SDS011;6006;49.696;8.662;2022-08-05T00:07:13;2.95;;;2.40;;
11893;SDS011;6006;49.696;8.662;2022-08-05T00:09:40;2.88;;;2.10;;
11893;SDS011;6006;49.696;8.662;2022-08-05T00:12:07;2.47;;;2.28;;
11893;SDS011;6006;49.696;8.662;2022-08-05T00:14:34;3.83;;;2.13;;
11893;SDS011;6006;49.696;8.662;2022-08-05T00:17:01;2.92;;;2.20;;
11893;SDS011;6006;49.696;8.662;2022-08-05T00:19:28;6.37;;;2.67;;
11893;SDS011;6006;49.696;8.662;2022-08-05T00:21:55;5.80;;;2.95;;
11893;SDS011;6006;49.696;8.662;2022-08-05T00:24:24;4.68;;;2.20;;
11893;SDS011;6006;49.696;8.662;2022-08-05T00:26:51;6.00;;;2.85;;
11893;SDS011;6006;49.696;8.662;2022-08-05T00:29:18;4.55;;;2.67;;
11893;SDS011;6006;49.696;8.662;2022-08-05T00:31:45;10.65;;;3.10;;
11893;SDS011;6006;49.696;8.662;2022-08-05T00:34:12;7.13;;;3.10;;
11893;SDS011;6006;49.696;8.662;2022-08-05T00:36:38;4.20;;;3.13;;
11893;SDS011;6006;49.696;8.662;2022-08-05T00:39:05;6.97;;;4.15;;
11893;SDS011;6006;49.696;8.662;2022-08-05T00:41:35;6.65;;;3.53;;
11893;SDS011;6006;49.696;8.662;2022-08-05T00:44:02;5.95;;;3.92;;
11893;SDS011;6006;49.696;8.662;2022-08-05T00:46:29;6.38;;;4.18;;
11893;SDS011;6006;49.696;8.662;2022-08-05T00:48:56;7.28;;;4.07;;
11893;SDS011;6006;49.696;8.662;2022-08-05T00:51:23;5.93;;;3.88;;
11893;SDS011;6006;49.696;8.662;2022-08-05T00:53:50;8.63;;;4.70;;
11893;SDS011;6006;49.696;8.662;2022-08-05T00:56:16;7.18;;;4.22;;
11893;SDS011;6006;49.696;8.662;2022-08-05T00:58:45;4.85;;;4.22;;
11893;SDS011;6006;49.696;8.662;2022-08-05T01:01:12;4.95;;;4.40;;
11893;SDS011;6006;49.696;8.662;2022-08-05T01:03:40;8.90;;;5.20;;
11893;SDS011;6006;49.696;8.662;2022-08-05T01:06:08;6.70;;;4.07;;
11893;SDS011;6006;49.696;8.662;2022-08-05T01:08:36;12.27;;;4.55;;
11893;SDS011;6006;49.696;8.662;2022-08-05T01:11:10;6.47;;;4.82;;
11893;SDS011;6006;49.696;8.662;2022-08-05T01:13:43;5.82;;;5.00;;
11893;SDS011;6006;49.696;8.662;2022-08-05T01:16:21;7.03;;;4.68;;
11893;SDS011;6006;49.696;8.662;2022-08-05T01:18:54;6.82;;;4.95;;
11893;SDS011;6006;49.696;8.662;2022-08-05T01:21:34;6.53;;;4.65;;
11893;SDS011;6006;49.696;8.662;2022-08-05T01:24:21;6.00;;;4.38;;
11893;SDS011;6006;49.696;8.662;2022-08-05T01:27:01;6.43;;;3.78;;
11893;SDS011;6006;49.696;8.662;2022-08-05T01:29:36;4.45;;;4.03;;
11893;SDS011;6006;49.696;8.662;2022-08-05T01:32:07;3.92;;;3.63;;
11893;SDS011;6006;49.696;8.662;2022-08-05T01:34:37;4.78;;;4.38;;
11893;SDS011;6006;49.696;8.662;2022-08-05T01:37:09;6.20;;;4.53;;
11893;SDS011;6006;49.696;8.662;2022-08-05T01:39:44;4.15;;;3.83;;
11893;SDS011;6006;49.696;8.662;2022-08-05T01:42:12;4.82;;;4.38;;
11893;SDS011;6006;49.696;8.662;2022-08-05T01:44:43;5.38;;;4.60;;
11893;SDS011;6006;49.696;8.662;2022-08-05T01:47:11;7.13;;;4.30;;
11893;SDS011;6006;49.696;8.662;2022-08-05T01:49:41;5.63;;;4.00;;
11893;SDS011;6006;49.696;8.662;2022-08-05T01:52:09;6.40;;;3.97;;
11893;SDS011;6006;49.696;8.662;2022-08-05T01:54:40;5.38;;;4.18;;
11893;SDS011;6006;49.696;8.662;2022-08-05T01:57:09;5.05;;;3.95;;
11893;SDS011;6006;49.696;8.662;2022-08-05T01:59:37;5.63;;;3.88;;
11893;SDS011;6006;49.696;8.662;2022-08-05T02:02:07;3.78;;;3.35;;
11893;SDS011;6006;49.696;8.662;2022-08-05T02:04:37;4.80;;;4.15;;
11893;SDS011;6006;49.696;8.662;2022-08-05T02:07:06;4.20;;;3.80;;
11893;SDS011;6006;49.696;8.662;2022-08-05T02:09:33;4.20;;;3.75;;
11893;SDS011;6006;49.696;8.662;2022-08-05T02:12:02;5.43;;;3.88;;
11893;SDS011;6006;49.696;8.662;2022-08-05T02:14:32;6.22;;;3.60;;
11893;SDS011;6006;49.696;8.662;2022-08-05T02:17:04;8.55;;;3.80;;
11893;SDS011;6006;49.696;8.662;2022-08-05T02:19:37;3.80;;;3.35;;
11893;SDS011;6006;49.696;8.662;2022-08-05T02:22:12;4.65;;;3.28;;
11893;SDS011;6006;49.696;8.662;2022-08-05T02:24:43;3.58;;;3.00;;
11893;SDS011;6006;49.696;8.662;2022-08-05T02:27:15;3.53;;;3.13;;
11893;SDS011;6006;49.696;8.662;2022-08-05T02:29:43;3.70;;;3.03;;
11893;SDS011;6006;49.696;8.662;2022-08-05T02:32:14;3.80;;;3.50;;
11893;SDS011;6006;49.696;8.662;2022-08-05T02:34:45;4.32;;;3.42;;
11893;SDS011;6006;49.696;8.662;2022-08-05T02:37:12;4.70;;;3.13;;
11893;SDS011;6006;49.696;8.662;2022-08-05T02:39:41;3.05;;;2.85;;
11893;SDS011;6006;49.696;8.662;2022-08-05T02:42:10;3.75;;;3.10;;
11893;SDS011;6006;49.696;8.662;2022-08-05T02:44:38;3.22;;;2.95;;
11893;SDS011;6006;49.696;8.662;2022-08-05T02:47:07;3.78;;;3.00;;
11893;SDS011;6006;49.696;8.662;2022-08-05T02:49:37;5.38;;;3.47;;
11893;SDS011;6006;49.696;8.662;2022-08-05T02:52:08;3.13;;;2.90;;
11893;SDS011;6006;49.696;8.662;2022-08-05T02:54:37;6.90;;;3.65;;
11893;SDS011;6006;49.696;8.662;2022-08-05T02:57:05;5.82;;;3.05;;
11893;SDS011;6006;49.696;8.662;2022-08-05T02:59:35;3.47;;;3.00;;
11893;SDS011;6006;49.696;8.662;2022-08-05T03:02:03;4.32;;;3.08;;
11893;SDS011;6006;49.696;8.662;2022-08-05T03:04:30;3.47;;;3.17;;
11893;SDS011;6006;49.696;8.662;2022-08-05T03:06:59;3.65;;;2.95;;
11893;SDS011;6006;49.696;8.662;2022-08-05T03:09:26;3.17;;;2.88;;
11893;SDS011;6006;49.696;8.662;2022-08-05T03:11:53;4.13;;;3.17;;
11893;SDS011;6006;49.696;8.662;2022-08-05T03:14:20;3.10;;;2.65;;
11893;SDS011;6006;49.696;8.662;2022-08-05T03:16:47;4.53;;;3.30;;
11893;SDS011;6006;49.696;8.662;2022-08-05T03:19:14;4.97;;;3.05;;
11893;SDS011;6006;49.696;8.662;2022-08-05T03:21:41;6.68;;;3.10;;
11893;SDS011;6006;49.696;8.662;2022-08-05T03:24:09;2.92;;;2.58;;
11893;SDS011;6006;49.696;8.662;2022-08-05T03:26:36;6.50;;;3.30;;
11893;SDS011;6006;49.696;8.662;2022-08-05T03:29:03;3.35;;;3.03;;
11893;SDS011;6006;49.696;8.662;2022-08-05T03:31:30;3.85;;;2.92;;
11893;SDS011;6006;49.696;8.662;2022-08-05T03:33:58;3.25;;;3.00;;
11893;SDS011;6006;49.696;8.662;2022-08-05T03:36:24;4.45;;;2.78;;
11893;SDS011;6006;49.696;8.662;2022-08-05T03:38:51;3.25;;;3.05;;
11893;SDS011;6006;49.696;8.662;2022-08-05T03:41:20;4.00;;;3.33;;
11893;SDS011;6006;49.696;8.662;2022-08-05T03:43:46;3.10;;;2.90;;
11893;SDS011;6006;49.696;8.662;2022-08-05T03:46:13;7.88;;;3.40;;
11893;SDS011;6006;49.696;8.662;2022-08-05T03:48:40;4.90;;;3.43;;
11893;SDS011;6006;49.696;8.662;2022-08-05T03:51:09;4.18;;;3.80;;
11893;SDS011;6006;49.696;8.662;2022-08-05T03:53:39;3.47;;;3.25;;
11893;SDS011;6006;49.696;8.662;2022-08-05T03:56:14;3.35;;;3.00;;
11893;SDS011;6006;49.696;8.662;2022-08-05T03:58:48;3.53;;;3.22;;
11893;SDS011;6006;49.696;8.662;2022-08-05T04:01:18;3.28;;;2.97;;
11893;SDS011;6006;49.696;8.662;2022-08-05T04:03:47;4.85;;;2.60;;
11893;SDS011;6006;49.696;8.662;2022-08-05T04:06:16;4.68;;;3.22;;
11893;SDS011;6006;49.696;8.662;2022-08-05T04:08:44;3.30;;;2.95;;
11893;SDS011;6006;49.696;8.662;2022-08-05T04:11:12;4.97;;;2.80;;
11893;SDS011;6006;49.696;8.662;2022-08-05T04:13:40;2.75;;;2.55;;
11893;SDS011;6006;49.696;8.662;2022-08-05T04:16:09;2.70;;;2.50;;
11893;SDS011;6006;49.696;8.662;2022-08-05T04:18:37;2.40;;;2.20;;
11893;SDS011;6006;49.696;8.662;2022-08-05T04:21:05;2.83;;;2.55;;
11893;SDS011;6006;49.696;8.662;2022-08-05T04:23:33;3.22;;;2.60;;
11893;SDS011;6006;49.696;8.662;2022-08-05T04:26:01;3.42;;;3.13;;
11893;SDS011;6006;49.696;8.662;2022-08-05T04:28:28;2.97;;;2.75;;
11893;SDS011;6006;49.696;8.662;2022-08-05T04:30:55;3.92;;;2.67;;
11893;SDS011;6006;49.696;8.662;2022-08-05T04:33:24;4.13;;;2.47;;
11893;SDS011;6006;49.696;8.662;2022-08-05T04:35:50;3.10;;;2.80;;
11893;SDS011;6006;49.696;8.662;2022-08-05T04:38:17;2.95;;;2.70;;
11893;SDS011;6006;49.696;8.662;2022-08-05T04:40:44;2.50;;;2.30;;
11893;SDS011;6006;49.696;8.662;2022-08-05T04:43:11;3.45;;;2.80;;
11893;SDS011;6006;49.696;8.662;2022-08-05T04:45:38;3.70;;;2.72;;
11893;SDS011;6006;49.696;8.662;2022-08-05T04:48:06;4.10;;;2.65;;
11893;SDS011;6006;49.696;8.662;2022-08-05T04:50:38;3.15;;;2.45;;
11893;SDS011;6006;49.696;8.662;2022-08-05T04:53:07;5.13;;;2.53;;
11893;SDS011;6006;49.696;8.662;2022-08-05T04:55:34;2.83;;;2.63;;
11893;SDS011;6006;49.696;8.662;2022-08-05T04:58:02;3.15;;;2.85;;
11893;SDS011;6006;49.696;8.662;2022-08-05T05:00:30;2.70;;;2.50;;
11893;SDS011;6006;49.696;8.662;2022-08-05T05:02:57;3.33;;;3.00;;
11893;SDS011;6006;49.696;8.662;2022-08-05T05:05:24;2.78;;;2.50;;
11893;SDS011;6006;49.696;8.662;2022-08-05T05:07:52;3.58;;;3.28;;
11893;SDS011;6006;49.696;8.662;2022-08-05T05:10:19;2.97;;;2.75;;
11893;SDS011;6006;49.696;8.662;2022-08-05T05:12:46;7.57;;;3.13;;
11893;SDS011;6006;49.696;8.662;2022-08-05T05:15:13;10.40;;;3.58;;
11893;SDS011;6006;49.696;8.662;2022-08-05T05:17:40;3.15;;;2.70;;
11893;SDS011;6006;49.696;8.662;2022-08-05T05:20:09;3.08;;;2.78;;
11893;SDS011;6006;49.696;8.662;2022-08-05T05:22:37;4.55;;;3.20;;
11893;SDS011;6006;49.696;8.662;2022-08-05T05:25:07;5.32;;;2.80;;
11893;SDS011;6006;49.696;8.662;2022-08-05T05:27:35;3.25;;;2.95;;
11893;SDS011;6006;49.696;8.662;2022-08-05T05:30:02;3.05;;;2.80;;
11893;SDS011;6006;49.696;8.662;2022-08-05T05:32:30;3.10;;;2.80;;
11893;SDS011;6006;49.696;8.662;2022-08-05T05:34:57;3.85;;;3.35;;
11893;SDS011;6006;49.696;8.662;2022-08-05T05:37:24;4.18;;;3.30;;
11893;SDS011;6006;49.696;8.662;2022-08-05T05:39:51;3.72;;;3.15;;
11893;SDS011;6006;49.696;8.662;2022-08-05T05:42:19;2.92;;;2.70;;
11893;SDS011;6006;49.696;8.662;2022-08-05T05:44:46;3.17;;;2.92;;
11893;SDS011;6006;49.696;8.662;2022-08-05T05:47:13;3.50;;;3.20;;
11893;SDS011;6006;49.696;8.662;2022-08-05T05:49:40;4.20;;;3.00;;
11893;SDS011;6006;49.696;8.662;2022-08-05T05:52:07;3.30;;;3.00;;
11893;SDS011;6006;49.696;8.662;2022-08-05T05:54:34;3.42;;;3.00;;
11893;SDS011;6006;49.696;8.662;2022-08-05T05:57:01;3.47;;;3.15;;
11893;SDS011;6006;49.696;8.662;2022-08-05T05:59:29;5.28;;;3.38;;
11893;SDS011;6006;49.696;8.662;2022-08-05T06:01:56;3.20;;;2.88;;
11893;SDS011;6006;49.696;8.662;2022-08-05T06:04:22;6.25;;;3.08;;
11893;SDS011;6006;49.696;8.662;2022-08-05T06:06:49;2.85;;;2.65;;
11893;SDS011;6006;49.696;8.662;2022-08-05T06:09:16;3.10;;;2.58;;
11893;SDS011;6006;49.696;8.662;2022-08-05T06:11:43;4.10;;;2.88;;
11893;SDS011;6006;49.696;8.662;2022-08-05T06:14:10;5.70;;;2.67;;
11893;SDS011;6006;49.696;8.662;2022-08-05T06:16:39;3.05;;;2.20;;
11893;SDS011;6006;49.696;8.662;2022-08-05T06:19:06;2.70;;;2.50;;
11893;SDS011;6006;49.696;8.662;2022-08-05T06:21:36;2.50;;;2.33;;
11893;SDS011;6006;49.696;8.662;2022-08-05T06:24:03;2.40;;;2.30;;
11893;SDS011;6006;49.696;8.662;2022-08-05T06:26:30;2.67;;;2.28;;
11893;SDS011;6006;49.696;8.662;2022-08-05T06:28:57;2.40;;;2.20;;
11893;SDS011;6006;49.696;8.662;2022-08-05T06:31:24;3.90;;;2.58;;
11893;SDS011;6006;49.696;8.662;2022-08-05T06:33:52;2.22;;;2.03;;
11893;SDS011;6006;49.696;8.662;2022-08-05T06:36:20;3.63;;;1.98;;
11893;SDS011;6006;49.696;8.662;2022-08-05T06:38:47;2.75;;;2.50;;
11893;SDS011;6006;49.696;8.662;2022-08-05T06:41:17;6.18;;;2.50;;
11893;SDS011;6006;49.696;8.662;2022-08-05T06:43:44;2.38;;;2.17;;
11893;SDS011;6006;49.696;8.662;2022-08-05T06:46:11;2.50;;;2.13;;
11893;SDS011;6006;49.696;8.662;2022-08-05T06:48:38;2.72;;;2.03;;
11893;SDS011;6006;49.696;8.662;2022-08-05T06:51:06;2.33;;;1.75;;
11893;SDS011;6006;49.696;8.662;2022-08-05T06:53:33;2.00;;;1.90;;
11893;SDS011;6006;49.696;8.662;2022-08-05T06:56:00;2.67;;;2.10;;
11893;SDS011;6006;49.696;8.662;2022-08-05T06:58:28;2.65;;;2.10;;
11893;SDS011;6006;49.696;8.662;2022-08-05T07:00:56;2.67;;;2.00;;
11893;SDS011;6006;49.696;8.662;2022-08-05T07:03:24;2.10;;;2.00;;
11893;SDS011;6006;49.696;8.662;2022-08-05T07:05:51;2.75;;;1.85;;
11893;SDS011;6006;49.696;8.662;2022-08-05T07:08:19;2.83;;;2.20;;
11893;SDS011;6006;49.696;8.662;2022-08-05T07:10:47;2.35;;;2.17;;
11893;SDS011;6006;49.696;8.662;2022-08-05T07:13:14;2.05;;;1.80;;
11893;SDS011;6006;49.696;8.662;2022-08-05T07:15:58;3.85;;;1.70;;
11893;SDS011;6006;49.696;8.662;2022-08-05T07:18:42;3.70;;;1.90;;
11893;SDS011;6006;49.696;8.662;2022-08-05T07:21:09;3.53;;;2.00;;
11893;SDS011;6006;49.696;8.662;2022-08-05T07:23:38;2.35;;;2.00;;
11893;SDS011;6006;49.696;8.662;2022-08-05T07:26:05;2.33;;;2.00;;
11893;SDS011;6006;49.696;8.662;2022-08-05T07:28:31;2.83;;;2.45;;
11893;SDS011;6006;49.696;8.662;2022-08-05T07:30:59;2.38;;;2.17;;
11893;SDS011;6006;49.696;8.662;2022-08-05T07:33:26;2.65;;;2.25;;
11893;SDS011;6006;49.696;8.662;2022-08-05T07:35:52;2.35;;;2.15;;
11893;SDS011;6006;49.696;8.662;2022-08-05T07:38:19;2.28;;;2.17;;
11893;SDS011;6006;49.696;8.662;2022-08-05T07:40:48;2.28;;;2.00;;
11893;SDS011;6006;49.696;8.662;2022-08-05T07:43:15;4.60;;;2.00;;
11893;SDS011;6006;49.696;8.662;2022-08-05T07:45:42;2.40;;;2.20;;
11893;SDS011;6006;49.696;8.662;2022-08-05T07:48:09;2.25;;;1.95;;
11893;SDS011;6006;49.696;8.662;2022-08-05T07:50:36;2.45;;;2.22;;
11893;SDS011;6006;49.696;8.662;2022-08-05T07:53:03;2.35;;;2.15;;
11893;SDS011;6006;49.696;8.662;2022-08-05T07:55:30;4.28;;;2.40;;
11893;SDS011;6006;49.696;8.662;2022-08-05T07:57:58;2.28;;;2.00;;
11893;SDS011;6006;49.696;8.662;2022-08-05T08:00:25;2.00;;;1.90;;
11893;SDS011;6006;49.696;8.662;2022-08-05T08:02:52;2.33;;;1.88;;
11893;SDS011;6006;49.696;8.662;2022-08-05T08:05:18;2.38;;;2.08;;
11893;SDS011;6006;49.696;8.662;2022-08-05T08:07:45;3.55;;;1.98;;
11893;SDS011;6006;49.696;8.662;2022-08-05T08:10:13;3.35;;;1.98;;
11893;SDS011;6006;49.696;8.662;2022-08-05T08:12:39;2.75;;;2.08;;
11893;SDS011;6006;49.696;8.662;2022-08-05T08:15:08;2.60;;;2.15;;
11893;SDS011;6006;49.696;8.662;2022-08-05T08:17:36;2.13;;;1.90;;
11893;SDS011;6006;49.696;8.662;2022-08-05T08:20:03;1.90;;;1.80;;
11893;SDS011;6006;49.696;8.662;2022-08-05T08:22:30;2.33;;;2.03;;
11893;SDS011;6006;49.696;8.662;2022-08-05T08:24:58;1.80;;;1.70;;
11893;SDS011;6006;49.696;8.662;2022-08-05T08:27:25;2.35;;;1.83;;
11893;SDS011;6006;49.696;8.662;2022-08-05T08:29:51;3.53;;;2.33;;
11893;SDS011;6006;49.696;8.662;2022-08-05T08:32:20;3.17;;;1.77;;
11893;SDS011;6006;49.696;8.662;2022-08-05T08:34:46;2.97;;;2.08;;
11893;SDS011;6006;49.696;8.662;2022-08-05T08:37:14;1.70;;;1.60;;
11893;SDS011;6006;49.696;8.662;2022-08-05T08:39:41;4.00;;;1.80;;
11893;SDS011;6006;49.696;8.662;2022-08-05T08:42:08;2.70;;;1.92;;
11893;SDS011;6006;49.696;8.662;2022-08-05T08:44:35;2.30;;;2.10;;
11893;SDS011;6006;49.696;8.662;2022-08-05T08:47:03;2.50;;;1.80;;
11893;SDS011;6006;49.696;8.662;2022-08-05T08:49:33;2.10;;;1.90;;
11893;SDS011;6006;49.696;8.662;2022-08-05T08:52:03;2.60;;;2.42;;
11893;SDS011;6006;49.696;8.662;2022-08-05T08:54:36;2.30;;;2.10;;
11893;SDS011;6006;49.696;8.662;2022-08-05T08:57:04;5.22;;;2.15;;
11893;SDS011;6006;49.696;8.662;2022-08-05T08:59:31;2.28;;;2.10;;
11893;SDS011;6006;49.696;8.662;2022-08-05T09:01:59;3.13;;;2.22;;
11893;SDS011;6006;49.696;8.662;2022-08-05T09:04:30;4.05;;;2.30;;
11893;SDS011;6006;49.696;8.662;2022-08-05T09:07:01;3.58;;;2.42;;
11893;SDS011;6006;49.696;8.662;2022-08-05T09:09:29;2.90;;;2.20;;
11893;SDS011;6006;49.696;8.662;2022-08-05T09:11:56;2.53;;;2.20;;
11893;SDS011;6006;49.696;8.662;2022-08-05T09:14:23;3.13;;;1.88;;
11893;SDS011;6006;49.696;8.662;2022-08-05T09:16:50;2.90;;;2.35;;
11893;SDS011;6006;49.696;8.662;2022-08-05T09:19:17;2.85;;;2.00;;
11893;SDS011;6006;49.696;8.662;2022-08-05T09:21:46;2.17;;;2.00;;
11893;SDS011;6006;49.696;8.662;2022-08-05T09:24:13;2.47;;;2.28;;
11893;SDS011;6006;49.696;8.662;2022-08-05T09:26:40;2.75;;;1.98;;
11893;SDS011;6006;49.696;8.662;2022-08-05T09:29:07;2.13;;;1.90;;
11893;SDS011;6006;49.696;8.662;2022-08-05T09:31:34;2.20;;;2.00;;
11893;SDS011;6006;49.696;8.662;2022-08-05T09:34:02;1.77;;;1.67;;
11893;SDS011;6006;49.696;8.662;2022-08-05T09:36:37;2.65;;;1.88;;
11893;SDS011;6006;49.696;8.662;2022-08-05T09:39:08;12.43;;;2.70;;
11893;SDS011;6006;49.696;8.662;2022-08-05T09:44:32;1.67;;;1.58;;
11893;SDS011;6006;49.696;8.662;2022-08-05T09:47:07;1.77;;;1.67;;
11893;SDS011;6006;49.696;8.662;2022-08-05T09:49:39;1.67;;;1.58;;
11893;SDS011;6006;49.696;8.662;2022-08-05T09:52:23;1.92;;;1.45;;
11893;SDS011;6006;49.696;8.662;2022-08-05T09:54:56;1.88;;;1.77;;
11893;SDS011;6006;49.696;8.662;2022-08-05T09:57:28;1.63;;;1.52;;
11893;SDS011;6006;49.696;8.662;2022-08-05T09:59:56;2.22;;;1.80;;
11893;SDS011;6006;49.696;8.662;2022-08-05T10:02:30;1.77;;;1.67;;
11893;SDS011;6006;49.696;8.662;2022-08-05T10:05:02;2.15;;;1.50;;
11893;SDS011;6006;49.696;8.662;2022-08-05T10:07:43;2.05;;;1.95;;
11893;SDS011;6006;49.696;8.662;2022-08-05T10:10:13;3.03;;;1.67;;
11893;SDS011;6006;49.696;8.662;2022-08-05T10:12:43;2.10;;;2.00;;
11893;SDS011;6006;49.696;8.662;2022-08-05T10:15:12;1.98;;;1.80;;
11893;SDS011;6006;49.696;8.662;2022-08-05T10:17:40;1.95;;;1.85;;
11893;SDS011;6006;49.696;8.662;2022-08-05T10:20:07;1.98;;;1.80;;
11893;SDS011;6006;49.696;8.662;2022-08-05T10:22:37;2.22;;;2.05;;
11893;SDS011;6006;49.696;8.662;2022-08-05T10:25:05;1.95;;;1.85;;
11893;SDS011;6006;49.696;8.662;2022-08-05T10:27:34;2.20;;;2.00;;
11893;SDS011;6006;49.696;8.662;2022-08-05T10:30:03;1.90;;;1.80;;
11893;SDS011;6006;49.696;8.662;2022-08-05T10:32:31;3.00;;;1.90;;
11893;SDS011;6006;49.696;8.662;2022-08-05T10:34:58;3.40;;;1.88;;
11893;SDS011;6006;49.696;8.662;2022-08-05T10:37:26;2.10;;;1.90;;
11893;SDS011;6006;49.696;8.662;2022-08-05T10:39:55;3.88;;;1.77;;
11893;SDS011;6006;49.696;8.662;2022-08-05T10:42:23;1.70;;;1.60;;
11893;SDS011;6006;49.696;8.662;2022-08-05T10:44:54;1.98;;;1.88;;
11893;SDS011;6006;49.696;8.662;2022-08-05T10:47:24;2.13;;;1.85;;
11893;SDS011;6006;49.696;8.662;2022-08-05T10:50:00;2.30;;;2.20;;
11893;SDS011;6006;49.696;8.662;2022-08-05T10:52:39;1.75;;;1.65;;
11893;SDS011;6006;49.696;8.662;2022-08-05T10:55:09;2.20;;;2.00;;
11893;SDS011;6006;49.696;8.662;2022-08-05T10:57:37;2.25;;;2.03;;
11893;SDS011;6006;49.696;8.662;2022-08-05T11:00:10;3.20;;;2.10;;
11893;SDS011;6006;49.696;8.662;2022-08-05T11:05:37;2.58;;;2.17;;
11893;SDS011;6006;49.696;8.662;2022-08-05T11:08:05;2.38;;;2.17;;
11893;SDS011;6006;49.696;8.662;2022-08-05T11:10:34;2.10;;;2.00;;
11893;SDS011;6006;49.696;8.662;2022-08-05T11:13:02;2.35;;;2.08;;
11893;SDS011;6006;49.696;8.662;2022-08-05T11:15:32;2.67;;;2.03;;
11893;SDS011;6006;49.696;8.662;2022-08-05T11:18:07;2.00;;;1.80;;
11893;SDS011;6006;49.696;8.662;2022-08-05T11:20:48;2.85;;;2.60;;
11893;SDS011;6006;49.696;8.662;2022-08-05T11:23:30;2.65;;;2.45;;
11893;SDS011;6006;49.696;8.662;2022-08-05T11:26:02;2.65;;;2.45;;
11893;SDS011;6006;49.696;8.662;2022-08-05T11:28:36;2.20;;;2.10;;
11893;SDS011;6006;49.696;8.662;2022-08-05T11:31:24;2.60;;;2.22;;
11893;SDS011;6006;49.696;8.662;2022-08-05T11:33:58;2.15;;;2.05;;
11893;SDS011;6006;49.696;8.662;2022-08-05T11:36:43;2.22;;;2.03;;
11893;SDS011;6006;49.696;8.662;2022-08-05T11:39:12;2.33;;;2.13;;
11893;SDS011;6006;49.696;8.662;2022-08-05T11:41:47;2.05;;;1.95;;
11893;SDS011;6006;49.696;8.662;2022-08-05T11:44:16;2.40;;;2.20;;
11893;SDS011;6006;49.696;8.662;2022-08-05T11:46:48;2.45;;;2.03;;
11893;SDS011;6006;49.696;8.662;2022-08-05T11:49:16;2.22;;;2.03;;
11893;SDS011;6006;49.696;8.662;2022-08-05T11:51:44;2.30;;;2.10;;
11893;SDS011;6006;49.696;8.662;2022-08-05T11:54:13;2.08;;;1.90;;
11893;SDS011;6006;49.696;8.662;2022-08-05T11:56:46;2.13;;;2.00;;
11893;SDS011;6006;49.696;8.662;2022-08-05T11:59:14;2.30;;;2.10;;
11893;SDS011;6006;49.696;8.662;2022-08-05T12:01:57;3.35;;;2.00;;
11893;SDS011;6006;49.696;8.662;2022-08-05T12:04:25;2.10;;;2.00;;
11893;SDS011;6006;49.696;8.662;2022-08-05T12:06:54;2.00;;;1.90;;
11893;SDS011;6006;49.696;8.662;2022-08-05T12:09:24;2.75;;;2.13;;
11893;SDS011;6006;49.696;8.662;2022-08-05T12:11:54;1.92;;;1.83;;
11893;SDS011;6006;49.696;8.662;2022-08-05T12:14:21;1.92;;;1.83;;
11893;SDS011;6006;49.696;8.662;2022-08-05T12:16:49;1.98;;;1.88;;
11893;SDS011;6006;49.696;8.662;2022-08-05T12:19:17;2.10;;;1.98;;
11893;SDS011;6006;49.696;8.662;2022-08-05T12:21:47;2.58;;;2.42;;
11893;SDS011;6006;49.696;8.662;2022-08-05T12:24:16;2.28;;;2.17;;
11893;SDS011;6006;49.696;8.662;2022-08-05T12:26:45;2.53;;;2.33;;
11893;SDS011;6006;49.696;8.662;2022-08-05T12:29:14;2.28;;;2.08;;
11893;SDS011;6006;49.696;8.662;2022-08-05T12:31:44;1.85;;;1.60;;
11893;SDS011;6006;49.696;8.662;2022-08-05T12:34:13;3.00;;;2.30;;
11893;SDS011;6006;49.696;8.662;2022-08-05T12:36:42;2.25;;;2.10;;
11893;SDS011;6006;49.696;8.662;2022-08-05T12:39:09;2.35;;;2.15;;
11893;SDS011;6006;49.696;8.662;2022-08-05T12:41:37;2.00;;;1.90;;
11893;SDS011;6006;49.696;8.662;2022-08-05T12:44:06;1.92;;;1.83;;
11893;SDS011;6006;49.696;8.662;2022-08-05T12:46:35;3.83;;;2.10;;
11893;SDS011;6006;49.696;8.662;2022-08-05T12:49:04;1.75;;;1.65;;
11893;SDS011;6006;49.696;8.662;2022-08-05T12:51:43;2.22;;;2.10;;
11893;SDS011;6006;49.696;8.662;2022-08-05T12:54:16;2.75;;;2.10;;
11893;SDS011;6006;49.696;8.662;2022-08-05T12:56:46;3.72;;;2.20;;
11893;SDS011;6006;49.696;8.662;2022-08-05T12:59:15;2.20;;;2.00;;
11893;SDS011;6006;49.696;8.662;2022-08-05T13:01:44;2.50;;;2.13;;
11893;SDS011;6006;49.696;8.662;2022-08-05T13:04:19;2.30;;;2.20;;
11893;SDS011;6006;49.696;8.662;2022-08-05T13:06:47;2.08;;;1.98;;
11893;SDS011;6006;49.696;8.662;2022-08-05T13:09:14;3.30;;;1.85;;
11893;SDS011;6006;49.696;8.662;2022-08-05T13:11:42;2.28;;;2.08;;
11893;SDS011;6006;49.696;8.662;2022-08-05T13:14:10;1.90;;;1.80;;
11893;SDS011;6006;49.696;8.662;2022-08-05T13:16:47;2.67;;;2.47;;
11893;SDS011;6006;49.696;8.662;2022-08-05T13:19:16;2.22;;;2.03;;
11893;SDS011;6006;49.696;8.662;2022-08-05T13:21:50;1.90;;;1.80;;
11893;SDS011;6006;49.696;8.662;2022-08-05T13:24:18;1.85;;;1.75;;
11893;SDS011;6006;49.696;8.662;2022-08-05T13:26:46;2.10;;;2.00;;
11893;SDS011;6006;49.696;8.662;2022-08-05T13:29:13;2.95;;;2.22;;
11893;SDS011;6006;49.696;8.662;2022-08-05T13:31:41;5.07;;;2.40;;
11893;SDS011;6006;49.696;8.662;2022-08-05T13:34:08;2.60;;;2.40;;
11893;SDS011;6006;49.696;8.662;2022-08-05T13:36:35;2.35;;;2.20;;
11893;SDS011;6006;49.696;8.662;2022-08-05T13:39:04;2.42;;;2.33;;
11893;SDS011;6006;49.696;8.662;2022-08-05T13:41:32;3.20;;;2.00;;
11893;SDS011;6006;49.696;8.662;2022-08-05T13:43:59;3.28;;;2.42;;
11893;SDS011;6006;49.696;8.662;2022-08-05T13:46:26;2.50;;;2.30;;
11893;SDS011;6006;49.696;8.662;2022-08-05T13:48:53;2.08;;;1.98;;
11893;SDS011;6006;49.696;8.662;2022-08-05T13:51:27;2.72;;;2.45;;
11893;SDS011;6006;49.696;8.662;2022-08-05T13:53:55;2.60;;;2.40;;
11893;SDS011;6006;49.696;8.662;2022-08-05T13:56:24;2.20;;;2.10;;
11893;SDS011;6006;49.696;8.662;2022-08-05T13:58:51;3.05;;;2.75;;
11893;SDS011;6006;49.696;8.662;2022-08-05T14:01:18;2.40;;;2.30;;
11893;SDS011;6006;49.696;8.662;2022-08-05T14:03:45;2.20;;;2.10;;
11893;SDS011;6006;49.696;8.662;2022-08-05T14:06:34;3.00;;;2.80;;
11893;SDS011;6006;49.696;8.662;2022-08-05T14:09:00;3.17;;;2.92;;
11893;SDS011;6006;49.696;8.662;2022-08-05T14:11:29;3.08;;;2.88;;
11893;SDS011;6006;49.696;8.662;2022-08-05T14:13:56;4.88;;;2.60;;
11893;SDS011;6006;49.696;8.662;2022-08-05T14:16:23;2.33;;;2.22;;
11893;SDS011;6006;49.696;8.662;2022-08-05T14:18:50;3.78;;;2.92;;
11893;SDS011;6006;49.696;8.662;2022-08-05T14:21:17;2.72;;;2.40;;
11893;SDS011;6006;49.696;8.662;2022-08-05T14:23:44;2.92;;;2.72;;
11893;SDS011;6006;49.696;8.662;2022-08-05T14:26:11;2.65;;;2.45;;
11893;SDS011;6006;49.696;8.662;2022-08-05T14:28:39;2.88;;;2.67;;
11893;SDS011;6006;49.696;8.662;2022-08-05T14:31:06;2.75;;;2.55;;
11893;SDS011;6006;49.696;8.662;2022-08-05T14:33:33;3.97;;;3.15;;
11893;SDS011;6006;49.696;8.662;2022-08-05T14:36:01;3.03;;;2.75;;
11893;SDS011;6006;49.696;8.662;2022-08-05T14:38:28;3.78;;;3.05;;
11893;SDS011;6006;49.696;8.662;2022-08-05T14:40:56;2.95;;;2.72;;
11893;SDS011;6006;49.696;8.662;2022-08-05T14:43:22;2.92;;;2.72;;
11893;SDS011;6006;49.696;8.662;2022-08-05T14:45:51;3.15;;;2.92;;
11893;SDS011;6006;49.696;8.662;2022-08-05T14:48:17;2.72;;;2.45;;
11893;SDS011;6006;49.696;8.662;2022-08-05T14:50:44;3.08;;;2.88;;
11893;SDS011;6006;49.696;8.662;2022-08-05T14:53:11;2.95;;;2.72;;
11893;SDS011;6006;49.696;8.662;2022-08-05T14:55:38;3.55;;;3.25;;
11893;SDS011;6006;49.696;8.662;2022-08-05T14:58:05;3.53;;;3.22;;
11893;SDS011;6006;49.696;8.662;2022-08-05T15:00:33;3.38;;;3.17;;
11893;SDS011;6006;49.696;8.662;2022-08-05T15:03:02;3.58;;;3.10;;
11893;SDS011;6006;49.696;8.662;2022-08-05T15:05:29;3.30;;;3.10;;
11893;SDS011;6006;49.696;8.662;2022-08-05T15:07:56;4.50;;;3.28;;
11893;SDS011;6006;49.696;8.662;2022-08-05T15:10:23;3.60;;;3.40;;
11893;SDS011;6006;49.696;8.662;2022-08-05T15:12:50;4.57;;;4.18;;
11893;SDS011;6006;49.696;8.662;2022-08-05T15:15:17;4.22;;;3.67;;
11893;SDS011;6006;49.696;8.662;2022-08-05T15:17:44;4.78;;;4.30;;